createdAt,value
2022-11-08T00:00:15.260Z,2.24
2022-11-08T00:01:33.612Z,2.03
2022-11-08T00:02:37.009Z,2.04
2022-11-08T00:03:39.153Z,2.21
2022-11-08T00:04:42.236Z,1.83
2022-11-08T00:06:03.040Z,1.99
2022-11-08T00:07:24.200Z,2.48
2022-11-08T00:08:44.832Z,2.05
2022-11-08T00:10:05.445Z,1.95
2022-11-08T00:11:27.273Z,2.40
2022-11-08T00:12:47.964Z,1.91
2022-11-08T00:14:00.365Z,2.17
2022-11-08T00:15:03.903Z,2.17
2022-11-08T00:16:07.504Z,2.29
2022-11-08T00:17:10.039Z,1.89
2022-11-08T00:18:13.378Z,2.28
2022-11-08T00:19:15.439Z,2.10
2022-11-08T00:20:18.674Z,2.33
2022-11-08T00:21:20.845Z,2.13
2022-11-08T00:22:23.983Z,2.26
2022-11-08T00:23:26.096Z,1.98
2022-11-08T00:24:29.200Z,2.19
2022-11-08T00:25:32.261Z,2.32
2022-11-08T00:26:35.787Z,2.18
2022-11-08T00:27:38.910Z,2.42
2022-11-08T00:28:41.006Z,2.13
2022-11-08T00:29:44.589Z,2.23
2022-11-08T00:30:46.688Z,2.03
2022-11-08T00:31:49.805Z,2.07
2022-11-08T00:32:52.901Z,2.03
2022-11-08T00:33:55.592Z,1.98
2022-11-08T00:34:58.733Z,1.84
2022-11-08T00:36:01.714Z,2.12
2022-11-08T00:37:05.133Z,2.08
2022-11-08T00:38:08.218Z,2.06
2022-11-08T00:39:12.065Z,2.15
2022-11-08T00:40:14.252Z,2.06
2022-11-08T00:41:17.384Z,1.92
2022-11-08T00:42:20.842Z,1.78
2022-11-08T00:43:24.017Z,1.97
2022-11-08T00:44:26.243Z,2.27
2022-11-08T00:45:29.343Z,2.22
2022-11-08T00:46:31.443Z,2.37
2022-11-08T00:47:34.735Z,2.03
2022-11-08T00:48:36.867Z,2.02
2022-11-08T00:49:39.929Z,1.74
2022-11-08T00:50:42.099Z,2.00
2022-11-08T00:51:45.660Z,2.20
2022-11-08T00:52:47.761Z,2.19
2022-11-08T00:53:50.840Z,2.02
2022-11-08T00:54:52.915Z,1.80
2022-11-08T00:56:00.836Z,2.04
2022-11-08T00:57:03.991Z,1.95
2022-11-08T00:58:07.495Z,2.09
2022-11-08T00:59:13.198Z,2.22
2022-11-08T01:00:15.953Z,1.79
2022-11-08T01:01:21.645Z,1.77
2022-11-08T01:02:23.863Z,1.88
2022-11-08T01:03:27.961Z,2.18
2022-11-08T01:04:30.370Z,2.22
2022-11-08T01:05:33.451Z,2.19
2022-11-08T01:06:36.551Z,2.24
2022-11-08T01:07:39.621Z,2.24
2022-11-08T01:08:42.253Z,1.62
2022-11-08T01:09:45.514Z,1.82
2022-11-08T01:10:51.257Z,2.00
2022-11-08T01:11:54.403Z,2.10
2022-11-08T01:12:56.650Z,2.02
2022-11-08T01:14:02.592Z,2.32
2022-11-08T01:15:05.291Z,2.21
2022-11-08T01:16:09.864Z,2.16
2022-11-08T01:17:13.032Z,2.11
2022-11-08T01:18:17.164Z,2.46
2022-11-08T01:19:20.555Z,2.08
2022-11-08T01:20:22.687Z,2.05
2022-11-08T01:21:27.349Z,2.22
2022-11-08T01:22:29.483Z,2.07
2022-11-08T01:23:33.744Z,2.37
2022-11-08T01:24:36.012Z,2.20
2022-11-08T01:25:40.868Z,2.23
2022-11-08T01:26:43.974Z,2.12
2022-11-08T01:27:46.063Z,2.29
2022-11-08T01:28:49.887Z,2.08
2022-11-08T01:29:53.340Z,2.19
2022-11-08T01:30:56.482Z,2.08
2022-11-08T01:31:58.628Z,2.22
2022-11-08T01:33:01.837Z,2.18
2022-11-08T01:34:05.462Z,2.15
2022-11-08T01:35:08.766Z,2.50
2022-11-08T01:36:13.846Z,2.43
2022-11-08T01:37:16.138Z,1.91
2022-11-08T01:38:19.778Z,2.13
2022-11-08T01:39:23.280Z,2.16
2022-11-08T01:40:25.710Z,2.02
2022-11-08T01:41:29.065Z,2.26
2022-11-08T01:42:32.783Z,2.17
2022-11-08T01:43:40.505Z,2.08
2022-11-08T01:45:02.725Z,2.40
2022-11-08T01:46:37.819Z,2.20
2022-11-08T01:47:41.015Z,2.15
2022-11-08T01:48:49.351Z,2.05
2022-11-08T01:49:56.620Z,2.13
2022-11-08T01:51:00.561Z,2.32
2022-11-08T01:52:23.703Z,2.00
2022-11-08T01:53:29.210Z,2.13
2022-11-08T01:54:42.859Z,2.11
2022-11-08T01:55:46.609Z,2.29
2022-11-08T01:56:50.613Z,2.27
2022-11-08T01:58:00.853Z,2.30
2022-11-08T01:59:07.972Z,1.85
2022-11-08T02:00:14.038Z,1.81
2022-11-08T02:01:16.269Z,1.73
2022-11-08T02:02:20.792Z,2.32
2022-11-08T02:03:23.010Z,1.55
2022-11-08T02:04:26.442Z,2.19
2022-11-08T02:05:32.067Z,2.30
2022-11-08T02:06:38.021Z,2.25
2022-11-08T02:07:41.181Z,2.27
2022-11-08T02:08:44.793Z,2.38
2022-11-08T02:09:49.364Z,2.21
2022-11-08T02:10:54.043Z,1.55
2022-11-08T02:11:58.327Z,2.13
2022-11-08T02:13:04.802Z,2.05
2022-11-08T02:14:08.834Z,2.23
2022-11-08T02:15:14.416Z,2.13
2022-11-08T02:16:18.054Z,2.23
2022-11-08T02:17:20.311Z,2.45
2022-11-08T02:18:28.114Z,2.03
2022-11-08T02:19:40.462Z,2.43
2022-11-08T02:20:53.736Z,2.43
2022-11-08T02:22:01.472Z,2.20
2022-11-08T02:23:15.215Z,2.19
2022-11-08T02:24:18.788Z,2.23
2022-11-08T02:25:22.201Z,2.55
2022-11-08T02:26:28.111Z,2.37
2022-11-08T02:27:31.199Z,2.27
2022-11-08T02:28:38.810Z,1.95
2022-11-08T02:29:42.666Z,1.43
2022-11-08T02:30:44.833Z,2.08
2022-11-08T02:31:47.948Z,2.25
2022-11-08T02:32:50.018Z,1.88
2022-11-08T02:33:53.249Z,1.65
2022-11-08T02:34:59.073Z,2.22
2022-11-08T02:36:03.696Z,1.96
2022-11-08T02:37:07.586Z,1.92
2022-11-08T02:38:10.710Z,1.36
2022-11-08T02:39:12.833Z,1.83
2022-11-08T02:40:17.353Z,1.52
2022-11-08T02:41:19.538Z,1.90
2022-11-08T02:42:22.694Z,1.61
2022-11-08T02:43:25.468Z,2.06
2022-11-08T02:44:28.717Z,1.43
2022-11-08T02:45:30.808Z,1.38
2022-11-08T02:46:33.915Z,1.65
2022-11-08T02:47:37.113Z,1.15
2022-11-08T02:48:39.227Z,0.64
2022-11-08T02:49:42.345Z,0.73
2022-11-08T02:50:44.492Z,1.89
2022-11-08T02:51:47.735Z,1.93
2022-11-08T02:52:49.822Z,1.17
2022-11-08T02:53:52.982Z,1.15
2022-11-08T02:54:56.067Z,0.90
2022-11-08T02:55:59.536Z,1.05
2022-11-08T02:57:02.725Z,1.55
2022-11-08T02:58:05.229Z,1.74
2022-11-08T02:59:08.398Z,1.89
2022-11-08T03:00:13.077Z,1.87
2022-11-08T03:01:15.236Z,0.91
2022-11-08T03:02:18.419Z,0.80
2022-11-08T03:03:20.620Z,0.84
2022-11-08T03:04:23.741Z,0.97
2022-11-08T03:05:27.371Z,2.22
2022-11-08T03:06:30.474Z,1.65
2022-11-08T03:07:32.713Z,1.05
2022-11-08T03:08:35.899Z,0.84
2022-11-08T03:09:37.974Z,1.40
2022-11-08T03:10:41.096Z,1.06
2022-11-08T03:11:44.671Z,1.15
2022-11-08T03:12:47.987Z,1.23
2022-11-08T03:13:50.113Z,1.25
2022-11-08T03:14:53.232Z,1.08
2022-11-08T03:15:55.407Z,0.99
2022-11-08T03:16:58.521Z,1.03
2022-11-08T03:18:02.238Z,0.88
2022-11-08T03:19:05.507Z,1.22
2022-11-08T03:20:08.465Z,0.76
2022-11-08T03:21:11.700Z,1.26
2022-11-08T03:22:13.764Z,0.97
2022-11-08T03:23:16.850Z,0.88
2022-11-08T03:24:18.927Z,1.12
2022-11-08T03:25:21.996Z,0.99
2022-11-08T03:26:24.151Z,1.34
2022-11-08T03:27:28.623Z,0.97
2022-11-08T03:29:41.122Z,1.41
2022-11-08T03:30:43.231Z,1.15
2022-11-08T03:31:46.364Z,1.43
2022-11-08T03:32:49.943Z,1.03
2022-11-08T03:33:52.998Z,0.83
2022-11-08T03:34:55.082Z,0.99
2022-11-08T03:35:58.179Z,0.97
2022-11-08T03:37:00.337Z,1.06
2022-11-08T03:38:03.629Z,0.95
2022-11-08T03:39:05.774Z,1.18
2022-11-08T03:40:10.311Z,0.86
2022-11-08T03:41:12.383Z,0.92
2022-11-08T03:42:15.536Z,1.20
2022-11-08T03:43:19.067Z,0.97
2022-11-08T03:44:22.179Z,0.88
2022-11-08T03:45:24.434Z,0.82
2022-11-08T03:46:27.555Z,0.85
2022-11-08T03:47:29.664Z,0.67
2022-11-08T03:48:32.783Z,0.71
2022-11-08T03:49:34.965Z,0.94
2022-11-08T03:50:38.086Z,1.09
2022-11-08T03:51:42.979Z,1.04
2022-11-08T03:52:48.539Z,1.01
2022-11-08T03:53:50.828Z,1.04
2022-11-08T03:54:53.901Z,1.23
2022-11-08T03:55:59.632Z,1.06
2022-11-08T03:57:01.716Z,0.99
2022-11-08T03:58:04.854Z,0.82
2022-11-08T03:59:08.613Z,1.08
2022-11-08T04:00:14.529Z,1.09
2022-11-08T04:01:16.789Z,1.06
2022-11-08T04:02:20.001Z,0.87
2022-11-08T04:03:27.924Z,0.97
2022-11-08T04:04:30.017Z,1.10
2022-11-08T04:05:34.067Z,1.05
2022-11-08T04:06:39.405Z,1.11
2022-11-08T04:07:43.166Z,0.85
2022-11-08T04:08:45.315Z,1.05
2022-11-08T04:09:48.452Z,0.88
2022-11-08T04:10:50.545Z,0.77
2022-11-08T04:12:10.101Z,0.77
2022-11-08T04:13:30.609Z,0.92
2022-11-08T04:14:52.821Z,0.82
2022-11-08T04:15:58.926Z,0.82
2022-11-08T04:17:01.076Z,0.65
2022-11-08T04:18:22.136Z,0.61
2022-11-08T04:19:42.786Z,0.46
2022-11-08T04:21:06.002Z,0.96
2022-11-08T04:22:12.677Z,1.47
2022-11-08T04:23:15.568Z,0.90
2022-11-08T04:24:19.003Z,1.43
2022-11-08T04:25:23.592Z,0.98
2022-11-08T04:26:26.689Z,1.27
2022-11-08T04:27:28.814Z,1.40
2022-11-08T04:28:34.594Z,1.45
2022-11-08T04:29:39.127Z,1.28
2022-11-08T04:30:41.238Z,1.14
2022-11-08T04:31:44.422Z,1.23
2022-11-08T04:32:46.530Z,1.69
2022-11-08T04:33:49.632Z,1.55
2022-11-08T04:34:51.753Z,1.29
2022-11-08T04:35:54.887Z,1.46
2022-11-08T04:36:58.007Z,1.57
2022-11-08T04:38:00.867Z,1.28
2022-11-08T04:39:04.113Z,1.61
2022-11-08T04:40:07.614Z,1.88
2022-11-08T04:41:13.125Z,1.84
2022-11-08T04:42:15.241Z,1.54
2022-11-08T04:43:18.370Z,1.26
2022-11-08T04:44:21.438Z,1.40
2022-11-08T04:45:24.950Z,1.70
2022-11-08T04:46:29.784Z,1.32
2022-11-08T04:47:37.654Z,1.04
2022-11-08T04:48:43.583Z,1.66
2022-11-08T04:49:45.705Z,1.71
2022-11-08T04:50:51.462Z,1.52
2022-11-08T04:51:54.555Z,1.59
2022-11-08T04:52:56.817Z,1.51
2022-11-08T04:54:02.558Z,1.36
2022-11-08T04:55:05.236Z,1.67
2022-11-08T04:56:10.756Z,1.74
2022-11-08T04:57:13.382Z,1.41
2022-11-08T04:58:16.775Z,1.16
2022-11-08T04:59:20.229Z,1.44
2022-11-08T05:00:23.822Z,1.24
2022-11-08T05:01:29.665Z,1.99
2022-11-08T05:02:32.062Z,2.27
2022-11-08T05:03:36.187Z,1.43
2022-11-08T05:04:38.510Z,1.11
2022-11-08T05:05:41.578Z,1.19
2022-11-08T05:06:44.561Z,1.53
2022-11-08T05:07:47.689Z,1.56
2022-11-08T05:08:51.355Z,1.05
2022-11-08T05:09:53.423Z,0.96
2022-11-08T05:11:01.738Z,0.90
2022-11-08T05:12:04.091Z,0.89
2022-11-08T05:13:07.193Z,1.01
2022-11-08T05:14:09.338Z,0.74
2022-11-08T05:15:12.856Z,0.73
2022-11-08T05:16:19.231Z,0.55
2022-11-08T05:17:22.305Z,0.60
2022-11-08T05:18:25.392Z,0.95
2022-11-08T05:19:45.958Z,0.67
2022-11-08T05:21:12.332Z,0.92
2022-11-08T05:22:32.885Z,0.74
2022-11-08T05:23:35.991Z,0.81
2022-11-08T05:24:38.121Z,0.91
2022-11-08T05:25:43.955Z,0.77
2022-11-08T05:26:49.083Z,0.64
2022-11-08T05:27:51.174Z,0.58
2022-11-08T05:28:54.298Z,0.79
2022-11-08T05:29:56.376Z,0.53
2022-11-08T05:30:59.731Z,0.60
2022-11-08T05:32:03.222Z,0.65
2022-11-08T05:33:06.350Z,0.72
2022-11-08T05:34:08.576Z,0.69
2022-11-08T05:35:11.726Z,0.66
2022-11-08T05:36:16.763Z,0.66
2022-11-08T05:37:20.766Z,0.67
2022-11-08T05:38:23.864Z,0.63
2022-11-08T05:39:29.520Z,0.66
2022-11-08T05:40:35.453Z,0.70
2022-11-08T05:41:37.546Z,0.80
2022-11-08T05:42:43.521Z,0.81
2022-11-08T05:43:47.309Z,0.58
2022-11-08T05:44:50.435Z,0.73
2022-11-08T05:45:52.750Z,0.67
2022-11-08T05:46:55.807Z,0.68
2022-11-08T05:48:03.647Z,0.59
2022-11-08T05:49:07.281Z,0.53
2022-11-08T05:50:09.605Z,0.71
2022-11-08T05:51:13.436Z,0.83
2022-11-08T05:52:15.524Z,0.97
2022-11-08T05:53:18.962Z,0.86
2022-11-08T05:54:21.346Z,1.31
2022-11-08T05:55:24.436Z,1.09
2022-11-08T05:56:26.580Z,0.96
2022-11-08T05:57:29.698Z,0.71
2022-11-08T05:58:36.433Z,0.72
2022-11-08T05:59:38.720Z,0.93
2022-11-08T06:00:41.987Z,0.75
2022-11-08T06:01:44.116Z,0.67
2022-11-08T06:02:47.332Z,0.90
2022-11-08T06:03:51.935Z,0.86
2022-11-08T06:04:54.103Z,0.85
2022-11-08T06:06:01.874Z,0.96
2022-11-08T06:07:05.000Z,0.84
2022-11-08T06:08:07.176Z,1.11
2022-11-08T06:09:10.454Z,2.27
2022-11-08T06:10:12.616Z,1.25
2022-11-08T06:11:17.955Z,1.18
2022-11-08T06:12:20.418Z,1.02
2022-11-08T06:13:23.489Z,0.96
2022-11-08T06:14:25.750Z,1.14
2022-11-08T06:15:28.986Z,1.20
2022-11-08T06:16:32.054Z,1.39
2022-11-08T06:17:35.242Z,1.22
2022-11-08T06:18:38.381Z,1.11
2022-11-08T06:19:42.900Z,1.02
2022-11-08T06:20:45.029Z,2.29
2022-11-08T06:21:48.156Z,1.28
2022-11-08T06:22:51.308Z,1.00
2022-11-08T06:23:54.315Z,2.50
2022-11-08T06:24:57.408Z,1.80
2022-11-08T06:26:00.227Z,1.22
2022-11-08T06:27:03.400Z,2.31
2022-11-08T06:28:06.909Z,2.73
2022-11-08T06:29:10.213Z,2.78
2022-11-08T06:30:14.497Z,2.07
2022-11-08T06:31:16.686Z,2.56
2022-11-08T06:32:19.771Z,2.30
2022-11-08T06:33:23.194Z,1.57
2022-11-08T06:34:25.790Z,2.80
2022-11-08T06:35:30.255Z,1.95
2022-11-08T06:36:32.412Z,1.36
2022-11-08T06:37:35.535Z,1.79
2022-11-08T06:38:38.680Z,1.60
2022-11-08T06:39:42.131Z,1.80
2022-11-08T06:40:44.892Z,1.33
2022-11-08T06:41:48.116Z,0.96
2022-11-08T06:42:52.598Z,1.58
2022-11-08T06:43:56.990Z,2.11
2022-11-08T06:45:00.083Z,1.95
2022-11-08T06:46:02.785Z,2.10
2022-11-08T06:47:06.385Z,2.52
2022-11-08T06:48:09.579Z,2.00
2022-11-08T06:49:12.691Z,1.89
2022-11-08T06:50:14.872Z,1.93
2022-11-08T06:51:19.482Z,1.86
2022-11-08T06:52:21.636Z,1.90
2022-11-08T06:53:24.779Z,3.12
2022-11-08T06:54:29.935Z,1.96
2022-11-08T06:55:33.055Z,2.20
2022-11-08T06:56:36.514Z,1.58
2022-11-08T06:57:38.697Z,1.34
2022-11-08T06:58:42.093Z,1.28
2022-11-08T06:59:45.253Z,1.33
2022-11-08T07:00:47.358Z,2.08
2022-11-08T07:01:50.737Z,1.39
2022-11-08T07:02:53.503Z,1.23
2022-11-08T07:03:56.838Z,1.09
2022-11-08T07:04:58.913Z,0.91
2022-11-08T07:06:03.812Z,0.98
2022-11-08T07:07:08.616Z,1.18
2022-11-08T07:08:11.783Z,1.14
2022-11-08T07:09:14.130Z,0.97
2022-11-08T07:10:17.236Z,0.96
2022-11-08T07:11:20.631Z,0.85
2022-11-08T07:12:22.734Z,0.87
2022-11-08T07:13:25.986Z,1.30
2022-11-08T07:14:29.217Z,2.16
2022-11-08T07:15:32.884Z,2.06
2022-11-08T07:16:36.011Z,2.48
2022-11-08T07:17:39.333Z,2.53
2022-11-08T07:18:42.680Z,1.40
2022-11-08T07:19:45.925Z,1.13
2022-11-08T07:20:48.109Z,1.03
2022-11-08T07:21:51.228Z,1.68
2022-11-08T07:22:57.048Z,1.35
2022-11-08T07:24:00.202Z,2.58
2022-11-08T07:25:03.456Z,3.50
2022-11-08T07:26:08.926Z,3.29
2022-11-08T07:27:12.093Z,2.92
2022-11-08T07:28:17.215Z,3.07
2022-11-08T07:29:20.532Z,2.89
2022-11-08T07:30:23.816Z,3.06
2022-11-08T07:31:27.723Z,2.84
2022-11-08T07:32:29.850Z,3.18
2022-11-08T07:33:33.801Z,2.50
2022-11-08T07:34:37.039Z,1.78
2022-11-08T07:35:39.608Z,2.13
2022-11-08T07:36:44.900Z,3.24
2022-11-08T07:37:47.573Z,1.92
2022-11-08T07:38:53.270Z,1.62
2022-11-08T07:39:55.356Z,1.05
2022-11-08T07:40:59.081Z,1.06
2022-11-08T07:42:02.272Z,0.70
2022-11-08T07:43:11.774Z,1.36
2022-11-08T07:44:16.330Z,1.25
2022-11-08T07:45:18.585Z,0.98
2022-11-08T07:46:21.681Z,0.79
2022-11-08T07:47:23.850Z,0.80
2022-11-08T07:48:31.573Z,0.82
2022-11-08T07:49:36.283Z,0.92
2022-11-08T07:50:39.131Z,0.82
2022-11-08T07:51:42.328Z,0.59
2022-11-08T07:52:49.612Z,0.77
2022-11-08T07:53:54.166Z,0.63
2022-11-08T07:54:56.388Z,0.63
2022-11-08T07:55:59.516Z,0.88
2022-11-08T07:57:01.614Z,1.03
2022-11-08T07:58:05.249Z,1.05
2022-11-08T07:59:08.401Z,2.51
2022-11-08T08:00:11.592Z,2.76
2022-11-08T08:01:14.758Z,2.33
2022-11-08T08:02:17.013Z,1.45
2022-11-08T08:03:20.878Z,1.57
2022-11-08T08:04:23.450Z,3.13
2022-11-08T08:05:27.699Z,19.28
2022-11-08T08:06:30.812Z,35.25
2022-11-08T08:07:34.882Z,24.45
2022-11-08T08:08:38.014Z,14.15
2022-11-08T08:09:41.682Z,8.10
2022-11-08T08:10:44.770Z,5.39
2022-11-08T08:11:49.868Z,3.74
2022-11-08T08:12:52.028Z,4.15
2022-11-08T08:13:55.889Z,4.51
2022-11-08T08:14:58.064Z,4.81
2022-11-08T08:16:02.212Z,4.06
2022-11-08T08:17:04.294Z,4.14
2022-11-08T08:18:09.366Z,3.18
2022-11-08T08:19:11.519Z,2.86
2022-11-08T08:20:14.928Z,3.31
2022-11-08T08:21:18.371Z,3.05
2022-11-08T08:22:21.482Z,2.68
2022-11-08T08:23:24.682Z,2.16
2022-11-08T08:24:26.792Z,1.26
2022-11-08T08:25:31.998Z,1.39
2022-11-08T08:26:34.209Z,1.40
2022-11-08T08:27:37.358Z,1.74
2022-11-08T08:28:40.463Z,1.48
2022-11-08T08:29:43.878Z,1.76
2022-11-08T08:30:47.063Z,1.48
2022-11-08T08:31:49.334Z,0.96
2022-11-08T08:33:14.667Z,2.63
2022-11-08T08:34:17.993Z,3.12
2022-11-08T08:35:21.104Z,2.50
2022-11-08T08:36:24.221Z,2.67
2022-11-08T08:37:26.335Z,1.98
2022-11-08T08:38:29.991Z,2.09
2022-11-08T08:39:33.119Z,1.56
2022-11-08T08:40:37.775Z,2.39
2022-11-08T08:41:41.243Z,2.28
2022-11-08T08:42:44.347Z,1.74
2022-11-08T08:43:46.499Z,1.77
2022-11-08T08:44:49.677Z,1.30
2022-11-08T08:45:52.757Z,1.34
2022-11-08T08:46:57.368Z,1.00
2022-11-08T08:48:01.118Z,1.59
2022-11-08T08:49:04.184Z,1.68
2022-11-08T08:50:08.074Z,1.20
2022-11-08T08:51:11.225Z,1.43
2022-11-08T08:52:13.333Z,2.35
2022-11-08T08:53:17.541Z,1.81
2022-11-08T08:54:23.601Z,2.51
2022-11-08T08:55:28.578Z,1.58
2022-11-08T08:56:33.096Z,1.20
2022-11-08T08:57:36.200Z,1.21
2022-11-08T08:58:39.691Z,0.85
2022-11-08T09:02:31.983Z,1.60
2022-11-08T09:03:35.836Z,1.48
2022-11-08T09:04:39.078Z,1.06
2022-11-08T09:05:44.033Z,1.30
2022-11-08T09:06:47.305Z,1.16
2022-11-08T09:07:50.360Z,1.47
2022-11-08T09:08:52.521Z,1.40
2022-11-08T09:09:55.597Z,1.43
2022-11-08T09:11:02.327Z,1.51
2022-11-08T09:12:11.820Z,1.65
2022-11-08T09:13:17.007Z,1.89
2022-11-08T09:14:20.751Z,1.64
2022-11-08T09:15:22.939Z,1.69
2022-11-08T09:16:26.326Z,1.19
2022-11-08T09:17:30.347Z,1.49
2022-11-08T09:18:32.686Z,1.36
2022-11-08T09:19:35.879Z,1.11
2022-11-08T09:20:39.455Z,1.32
2022-11-08T09:21:42.702Z,1.22
2022-11-08T09:22:44.867Z,1.35
2022-11-08T09:23:47.947Z,1.27
2022-11-08T09:24:51.289Z,1.21
2022-11-08T09:25:57.342Z,1.15
2022-11-08T13:11:05.612Z,1.44
2022-11-08T13:12:28.533Z,1.08
2022-11-08T13:13:48.492Z,1.48
2022-11-08T13:14:52.407Z,1.50
2022-11-08T13:16:17.279Z,1.55
2022-11-08T13:17:23.083Z,1.24
2022-11-08T13:18:35.029Z,1.43
2022-11-08T13:19:54.181Z,1.54
2022-11-08T13:20:57.521Z,1.58
2022-11-08T13:22:00.725Z,1.49
2022-11-08T13:23:11.827Z,1.34
2022-11-08T13:24:50.649Z,1.58
2022-11-08T13:25:56.021Z,1.72
2022-11-08T13:27:31.384Z,1.59
2022-11-08T13:28:45.545Z,1.57
2022-11-08T13:31:17.051Z,1.43
2022-11-08T13:32:41.921Z,1.74
2022-11-08T13:33:59.244Z,1.75
2022-11-08T13:35:17.463Z,1.53
2022-11-08T13:36:34.364Z,1.43
2022-11-08T13:37:59.566Z,1.58
2022-11-08T13:39:29.125Z,1.57
2022-11-08T13:40:45.501Z,1.87
2022-11-08T13:42:28.493Z,1.89
2022-11-08T13:43:33.548Z,1.47
2022-11-08T13:45:00.029Z,1.71
2022-11-08T13:46:55.841Z,1.64
2022-11-08T13:48:01.899Z,1.49
2022-11-08T13:49:15.164Z,1.73
2022-11-08T13:50:52.619Z,1.78
2022-11-08T13:52:28.977Z,1.38
2022-11-08T13:53:54.644Z,1.40
2022-11-08T13:54:57.912Z,1.66
2022-11-08T13:56:24.060Z,1.67
2022-11-08T13:57:57.378Z,1.45
2022-11-08T13:58:59.485Z,1.49
2022-11-08T14:00:02.679Z,1.41
2022-11-08T14:01:08.266Z,1.40
2022-11-08T14:02:31.671Z,1.50
2022-11-08T14:03:53.820Z,1.49
2022-11-08T14:05:27.994Z,1.40
2022-11-08T14:06:45.256Z,1.32
2022-11-08T14:08:23.378Z,1.59
2022-11-08T14:09:41.588Z,1.82
2022-11-08T14:11:25.929Z,1.53
2022-11-08T14:12:40.438Z,1.40
2022-11-08T14:14:19.838Z,1.23
2022-11-08T14:15:29.055Z,1.70
2022-11-08T14:16:40.341Z,1.36
2022-11-08T14:17:48.915Z,1.59
2022-11-08T14:18:51.116Z,1.59
2022-11-08T14:20:14.453Z,1.60
2022-11-08T14:21:20.244Z,1.66
2022-11-08T14:22:26.996Z,1.25
2022-11-08T14:23:33.509Z,1.40
2022-11-08T14:24:38.272Z,1.67
2022-11-08T14:25:43.566Z,1.44
2022-11-08T14:26:46.592Z,1.61
2022-11-08T14:27:49.733Z,1.46
2022-11-08T14:28:52.981Z,1.67
2022-11-08T14:30:01.451Z,1.57
2022-11-08T14:31:06.513Z,1.38
2022-11-08T14:32:18.685Z,1.63
2022-11-08T14:33:23.645Z,1.33
2022-11-08T14:34:33.051Z,1.30
2022-11-08T14:35:36.198Z,1.48
2022-11-08T14:36:38.503Z,1.54
2022-11-08T14:37:44.292Z,1.39
2022-11-08T14:38:50.311Z,1.23
2022-11-08T14:39:54.356Z,1.55
2022-11-08T14:41:01.215Z,1.49
2022-11-08T14:42:07.309Z,1.33
2022-11-08T14:43:12.913Z,1.22
2022-11-08T14:44:18.930Z,1.33
2022-11-08T14:45:29.066Z,1.47
2022-11-08T14:46:35.795Z,1.28
2022-11-08T14:47:40.813Z,1.38
2022-11-08T14:48:51.589Z,1.79
2022-11-08T14:49:54.704Z,1.56
2022-11-08T14:51:01.835Z,1.33
2022-11-08T14:52:14.539Z,1.31
2022-11-08T14:53:24.563Z,1.40
2022-11-08T14:54:29.585Z,1.51
2022-11-08T14:55:32.701Z,1.45
2022-11-08T14:56:39.555Z,1.66
2022-11-08T14:57:44.196Z,1.60
2022-11-08T14:58:49.300Z,1.80
2022-11-08T14:59:55.430Z,1.69
2022-11-08T15:01:04.831Z,1.62
2022-11-08T15:02:08.408Z,1.62
2022-11-08T15:03:17.351Z,1.75
2022-11-08T15:04:24.108Z,1.61
2022-11-08T15:05:34.956Z,1.73
2022-11-08T15:06:45.374Z,1.74
2022-11-08T15:07:48.652Z,2.02
2022-11-08T15:08:54.777Z,3.46
2022-11-08T15:09:58.111Z,4.61
2022-11-08T15:11:06.698Z,3.07
2022-11-08T15:12:18.345Z,2.52
2022-11-08T15:13:21.022Z,3.44
2022-11-08T15:14:27.631Z,3.24
2022-11-08T15:15:34.393Z,4.00
2022-11-08T15:16:44.668Z,5.62
2022-11-08T15:17:48.297Z,6.10
2022-11-08T15:18:51.813Z,5.60
2022-11-08T15:20:05.165Z,3.97
2022-11-08T15:21:23.811Z,2.80
2022-11-08T15:22:29.672Z,2.70
2022-11-08T15:23:43.573Z,2.26
2022-11-08T15:24:45.809Z,2.25
2022-11-08T15:26:27.715Z,2.52
2022-11-08T15:27:31.350Z,2.33
2022-11-08T15:28:35.825Z,3.11
2022-11-08T15:30:01.630Z,3.00
2022-11-08T15:31:07.251Z,2.82
2022-11-08T15:32:18.715Z,2.56
2022-11-08T15:33:22.964Z,2.32
2022-11-08T15:34:32.820Z,2.03
2022-11-08T15:35:39.036Z,1.87
2022-11-08T15:36:42.291Z,1.33
2022-11-08T15:37:46.611Z,1.16
2022-11-08T15:38:50.996Z,1.23
2022-11-08T15:39:57.604Z,1.42
2022-11-08T15:41:04.231Z,1.45
2022-11-08T15:42:15.312Z,1.74
2022-11-08T15:43:38.470Z,1.58
2022-11-08T15:45:00.759Z,1.41
2022-11-08T15:46:06.357Z,1.44
2022-11-08T15:47:39.530Z,1.57
2022-11-08T15:48:42.724Z,1.07
2022-11-08T15:49:45.846Z,1.36
2022-11-08T15:50:49.210Z,1.20
2022-11-08T15:51:54.486Z,1.08
2022-11-08T15:53:00.561Z,1.38
2022-11-08T15:54:03.682Z,1.47
2022-11-08T15:55:08.124Z,1.47
2022-11-08T15:56:13.640Z,1.51
2022-11-08T15:57:17.176Z,1.48
2022-11-08T15:58:30.526Z,1.19
2022-11-08T15:59:35.884Z,1.20
2022-11-08T16:00:45.235Z,0.85
2022-11-08T16:01:54.730Z,0.90
2022-11-08T16:03:00.285Z,0.89
2022-11-08T16:04:02.579Z,1.21
2022-11-08T16:05:14.799Z,1.06
2022-11-08T16:06:17.922Z,1.01
2022-11-08T16:07:23.012Z,1.07
2022-11-08T16:08:28.990Z,1.03
2022-11-08T16:09:33.055Z,0.92
2022-11-08T16:10:43.238Z,1.32
2022-11-08T16:11:46.260Z,1.11
2022-11-08T16:12:49.433Z,0.96
2022-11-08T16:13:52.880Z,1.35
2022-11-08T16:14:58.049Z,0.75
2022-11-08T16:16:02.924Z,0.72
2022-11-08T16:17:07.127Z,1.12
2022-11-08T16:18:13.018Z,1.29
2022-11-08T16:19:20.663Z,0.97
2022-11-08T16:20:29.143Z,1.20
2022-11-08T16:21:32.251Z,1.47
2022-11-08T16:22:37.492Z,1.14
2022-11-08T16:23:41.736Z,0.80
2022-11-08T16:24:43.847Z,0.67
2022-11-08T16:25:50.148Z,1.06
2022-11-08T16:26:53.297Z,1.00
2022-11-08T16:28:01.129Z,1.64
2022-11-08T16:29:06.261Z,1.48
2022-11-08T16:30:16.494Z,2.16
2022-11-08T16:31:20.082Z,2.29
2022-11-08T16:32:22.339Z,2.78
2022-11-08T16:33:28.862Z,3.47
2022-11-08T16:34:32.399Z,2.48
2022-11-08T16:35:34.565Z,2.74
2022-11-08T16:36:38.143Z,2.50
2022-11-08T16:37:42.164Z,1.96
2022-11-08T16:38:50.421Z,2.67
2022-11-08T16:39:53.637Z,2.59
2022-11-08T16:40:56.971Z,2.48
2022-11-08T16:42:00.107Z,2.16
2022-11-08T16:43:02.305Z,1.76
2022-11-08T16:44:05.564Z,1.93
2022-11-08T16:45:09.050Z,2.16
2022-11-08T16:46:13.429Z,2.18
2022-11-08T16:47:19.880Z,2.14
2022-11-08T16:48:27.555Z,2.30
2022-11-08T16:49:33.955Z,1.94
2022-11-08T16:50:36.052Z,2.13
2022-11-08T16:51:39.234Z,2.18
2022-11-08T16:52:41.457Z,2.08
2022-11-08T16:53:44.953Z,1.73
2022-11-08T16:54:48.232Z,1.97
2022-11-08T16:55:51.323Z,1.73
2022-11-08T16:57:13.757Z,1.80
2022-11-08T16:58:17.799Z,2.44
2022-11-08T16:59:21.154Z,2.19
2022-11-08T17:00:24.590Z,1.67
2022-11-08T17:01:34.029Z,2.41
2022-11-08T17:02:40.913Z,2.51
2022-11-08T17:03:45.377Z,2.20
2022-11-08T17:04:48.451Z,1.92
2022-11-08T17:05:52.204Z,2.83
2022-11-08T17:06:54.359Z,2.55
2022-11-08T17:07:57.699Z,2.20
2022-11-08T17:09:00.808Z,2.53
2022-11-08T17:10:02.940Z,3.46
2022-11-08T17:11:06.180Z,2.74
2022-11-08T17:12:10.181Z,3.04
2022-11-08T17:13:15.531Z,2.97
2022-11-08T17:14:18.691Z,4.02
2022-11-08T17:15:23.179Z,3.84
2022-11-08T17:16:27.083Z,3.85
2022-11-08T17:17:30.225Z,3.29
2022-11-08T17:18:33.279Z,3.28
2022-11-08T17:19:37.735Z,2.91
2022-11-08T17:20:40.061Z,2.59
2022-11-08T17:21:45.132Z,2.63
2022-11-08T17:22:49.033Z,2.78
2022-11-08T17:23:52.182Z,2.39
2022-11-08T17:24:55.306Z,2.30
2022-11-08T17:25:58.498Z,2.01
2022-11-08T17:27:02.325Z,2.25
2022-11-08T17:28:05.922Z,2.37
2022-11-08T17:29:09.051Z,2.63
2022-11-08T17:30:14.624Z,2.32
2022-11-08T17:31:20.303Z,2.14
2022-11-08T17:32:22.601Z,2.63
2022-11-08T17:33:25.962Z,2.46
2022-11-08T17:34:29.528Z,2.18
2022-11-08T17:35:33.030Z,2.39
2022-11-08T17:36:36.257Z,2.07
2022-11-08T17:37:40.080Z,2.26
2022-11-08T17:38:44.630Z,2.49
2022-11-08T17:39:47.745Z,2.49
2022-11-08T17:40:49.854Z,3.00
2022-11-08T17:41:53.045Z,3.41
2022-11-08T17:42:55.309Z,4.44
2022-11-08T17:43:58.423Z,4.25
2022-11-08T17:45:01.533Z,3.06
2022-11-08T17:46:05.453Z,3.51
2022-11-08T17:47:07.604Z,5.79
2022-11-08T17:48:10.743Z,5.57
2022-11-08T17:49:13.902Z,3.72
2022-11-08T17:50:17.198Z,4.99
2022-11-08T17:51:21.711Z,5.01
2022-11-08T17:52:23.912Z,4.65
2022-11-08T17:53:27.816Z,2.43
2022-11-08T17:54:31.046Z,1.66
2022-11-08T17:55:34.470Z,1.47
2022-11-08T17:56:37.654Z,1.46
2022-11-08T17:57:39.824Z,1.20
2022-11-08T17:58:42.995Z,1.31
2022-11-08T17:59:48.214Z,1.17
2022-11-08T18:00:54.397Z,1.12
2022-11-08T18:01:57.695Z,0.97
2022-11-08T18:02:59.973Z,0.80
2022-11-08T18:04:03.528Z,0.76
2022-11-08T18:05:06.400Z,0.84
2022-11-08T18:06:13.246Z,0.83
2022-11-08T18:07:17.937Z,0.64
2022-11-08T18:08:25.529Z,0.61
2022-11-08T18:09:32.222Z,0.87
2022-11-08T18:10:35.652Z,0.55
2022-11-08T18:11:47.806Z,0.77
2022-11-08T18:12:50.903Z,0.96
2022-11-08T18:13:54.100Z,0.85
2022-11-08T18:14:56.224Z,1.03
2022-11-08T18:16:07.049Z,0.84
2022-11-08T18:17:10.252Z,1.23
2022-11-08T18:18:13.341Z,2.07
2022-11-08T18:19:16.803Z,1.91
2022-11-08T18:20:20.283Z,2.68
2022-11-08T18:21:23.488Z,2.57
2022-11-08T18:22:27.063Z,2.90
2022-11-08T18:23:30.181Z,3.23